This is the latest recevied weather packets stored in our database for station/object DL4NBA-1. If no packets are shown the sender has not sent any weather packets the latest 10 day(s).
| Time | Temp. | Humidity | Pressure | Rain* | Wind** | Luminosity | Snow |
|---|---|---|---|---|---|---|---|
| 1777735418 | 28.89° C | - | - | 0 mm | 1.34 m/s, 148° | - | - |
| 1777735119 | 27.22° C | - | - | 0 mm | 0.45 m/s, 184° | - | - |
| 1777733918 | 29.44° C | - | - | 0 mm | 0 m/s | - | - |
| 1777731218 | 30.56° C | - | - | 0 mm | 2.68 m/s, 131° | - | - |
| 1777730619 | 29.44° C | - | - | 0 mm | 3.13 m/s, 170° | - | - |
| 1777730319 | 28.89° C | - | - | 0 mm | 1.79 m/s, 173° | - | - |
| 1777729718 | 28.33° C | - | - | 0 mm | 2.24 m/s, 107° | - | - |
| 1777729419 | 29.44° C | - | - | 0 mm | 1.79 m/s, 155° | - | - |
| 1777728820 | 28.89° C | - | - | 0 mm | 0.89 m/s, 162° | - | - |
| 1777728517 | 27.78° C | - | - | 0 mm | 0 m/s | - | - |
| 1777728218 | 28.33° C | - | - | 0 mm | 2.24 m/s, 145° | - | - |
| 1777727919 | 28.89° C | - | - | 0 mm | 3.13 m/s, 165° | - | - |
| 1777727619 | 28.33° C | - | - | 0 mm | 2.68 m/s, 166° | - | - |
| 1777727320 | 26.67° C | - | - | 0 mm | 0.45 m/s, 215° | - | - |
| 1777727016 | 26.67° C | - | - | 0 mm | 0.89 m/s, 208° | - | - |
| 1777726717 | 27.78° C | - | - | 0 mm | 2.68 m/s, 201° | - | - |
| 1777726418 | 30° C | - | - | 0 mm | 4.02 m/s, 118° | - | - |
| 1777726119 | 27.78° C | - | - | 0 mm | 2.24 m/s, 87° | - | - |
| 1777725517 | 28.33° C | - | - | 0 mm | 2.24 m/s, 113° | - | - |
| 1777725218 | 28.33° C | - | - | 0 mm | 2.24 m/s, 139° | - | - |
| 1777724919 | 27.22° C | - | - | 0 mm | 0.89 m/s, 139° | - | - |
| 1777724620 | 28.89° C | - | - | 0 mm | 3.13 m/s, 145° | - | - |
| 1777724321 | 27.78° C | - | - | 0 mm | 1.34 m/s, 131° | - | - |
| 1777723720 | 28.33° C | - | - | 0 mm | 1.79 m/s, 96° | - | - |
| 1777723122 | 27.22° C | - | - | 0 mm | 0 m/s | - | - |
* Rain latest hour (hover to see other rain measurements)
** Current wind speed in m/s (hover to see current wind gust speed)